Latest Coastal Weather Observations for Karratha

IDW60701

Issued at 9:32 pm WST Sunday 21 December 2014 (issued every 10 minutes, with the page automatically refreshed every 10 minutes)

About coastal observations | Map of coastal stations | Coastal observations for WA | Marine services | Other Formats
Station Details ID: 004083 Name: KARRATHA AERO Lat: -20.71 Lon: 116.77 Height: 5.3 m
Data from the previous 72 hours. | See also: Recent months at Karratha
Date/Time
WST
Temp

°C
Wind Pressure Rain
since 9am
mm
Weather Cloud Vis
km
Sea
Height
m
Swell
Dir
 
Speed
knots
Gust
knots
hPa Trend Height
m
Period
s
Dir
21/09:30pm 27.8 W 12 15 1007.4 - 0.0 - - 10 - - - -
21/09:00pm 27.8 W 13 17 1007.1 - 0.0 - - 10 - - - -
21/08:30pm 27.9 W 15 17 1006.8 - 0.0 - - 10 - - - -
21/08:00pm 28.1 W 15 17 1006.3 - 0.0 - - 10 - - - -
21/07:30pm 28.3 W 15 17 1005.9 - 0.0 - - 10 - - - -
21/07:00pm 28.3 WNW 15 20 1005.3 - 0.0 - - 10 - - - -
21/06:30pm 29.0 WNW 15 20 1005.2 - 0.0 - - 10 - - - -
21/06:00pm 29.3 WNW 16 20 1004.9 - 0.0 - - 10 - - - -
21/05:30pm 30.2 WNW 16 21 1004.9 - 0.0 - - 10 - - - -
21/05:00pm 30.8 WNW 17 22 1005.0 - 0.0 - - 10 - - - -
21/04:30pm 30.9 WNW 17 22 1005.2 - 0.0 - - 10 - - - -
21/04:00pm 31.7 WNW 17 22 1005.3 - 0.0 - - 10 - - - -
21/03:30pm 32.0 WNW 17 22 1005.5 - 0.0 - - 10 - - - -
21/03:00pm 33.6 NW 17 22 1005.6 - 0.0 - - 10 - - - -
21/02:30pm 33.6 WNW 17 21 1006.0 - 0.0 - - 10 - - - -
21/02:00pm 33.5 NW 16 20 1006.2 - 0.0 - - 10 - - - -
21/01:30pm 34.4 WNW 15 18 1006.3 - 0.0 - - 10 - - - -
21/01:00pm 34.1 NW 15 19 1006.6 - 0.0 - - 10 - - - -
21/12:30pm 34.5 WNW 15 18 1006.8 - 0.0 - - 10 - - - -
21/12:00pm 34.7 NW 13 16 1007.2 - 0.0 - - 10 - - - -
21/11:30am 33.1 NW 12 16 1007.3 - 0.0 - - 10 - - - -
21/11:00am 32.4 WNW 12 15 1007.5 - 0.0 - - 10 - - - -
21/10:30am 32.6 WNW 11 15 1007.8 - 0.0 - - 10 - - - -
21/10:00am 32.4 WNW 11 14 1007.9 - 0.0 - - 10 - - - -
21/09:30am 31.3 WNW 10 13 1008.1 - 0.0 - - 10 - - - -
21/09:00am 31.3 W 9 13 1008.2 - 0.0 - - 10 - - - -
21/08:30am 30.2 W 10 13 1008.1 - 0.0 - - 10 - - - -
21/08:00am 29.1 W 11 13 1008.1 - 0.0 - - 10 - - - -
21/07:30am 28.8 WSW 12 14 1008.2 - 0.0 - - 10 - - - -
21/07:00am 28.1 WSW 13 15 1008.0 - 0.0 - - 10 - - - -
21/06:30am 27.5 WSW 13 15 1008.0 - 0.0 - - 10 - - - -
21/06:00am 26.8 W 12 14 1007.7 - 0.0 - - 10 - - - -
21/05:30am 26.3 WSW 9 11 1007.6 - 0.0 - - 10 - - - -
21/05:00am 26.6 WSW 10 12 1007.4 - 0.0 - - 10 - - - -
21/04:30am 26.8 WSW 13 16 1007.1 - 0.0 - - 10 - - - -
21/04:00am 26.7 WSW 10 13 1007.0 - 0.0 - - 10 - - - -
21/03:30am 27.0 W 12 16 1006.7 - 0.0 - - 10 - - - -
21/03:00am 27.0 W 12 15 1006.8 - 0.0 - - 10 - - - -
21/02:30am 27.0 W 12 15 1007.1 - 0.0 - - 10 - - - -
21/02:00am 26.9 W 14 16 1006.9 - 0.0 - - 10 - - - -
21/01:30am 27.0 WNW 11 13 1007.5 - 0.0 - - 10 - - - -
21/01:00am 27.0 WNW 9 11 1008.0 - 0.0 - - 10 - - - -
21/12:30am 27.1 WNW 10 13 1008.0 - 0.0 - - 10 - - - -
21/12:00am 27.3 WNW 10 13 1008.3 - 0.0 - - 10 - - - -
 
Date/Time
WST
Temp

°C
Wind Pressure Rain
since 9am
mm
Weather Cloud Vis
km
Sea
Height
m
Swell
Dir
 
Speed
knots
Gust
knots
hPa Trend Height
m
Period
s
Dir
20/11:30pm 27.5 W 11 13 1008.6 - 0.0 - - 10 - - - -
20/11:00pm 27.3 WNW 11 15 1008.6 - 0.0 - - 10 - - - -
20/10:30pm 27.5 W 12 14 1008.6 - 0.0 - - 10 - - - -
20/10:00pm 27.5 W 13 17 1008.6 - 0.0 - - 10 - - - -
20/09:30pm 27.5 W 13 15 1008.3 - 0.0 - - 10 - - - -
20/09:00pm 27.6 WNW 12 15 1007.9 - 0.0 - - 10 - - - -
20/08:30pm 27.6 WNW 12 16 1007.5 - 0.0 - - 10 - - - -
20/08:00pm 27.5 WNW 13 19 1007.5 - 0.0 - - 10 - - - -
20/07:30pm 27.6 WNW 13 18 1006.9 - 0.0 - - 10 - - - -
20/07:00pm 28.3 WNW 13 18 1006.6 - 0.0 - - 10 - - - -
20/06:30pm 28.7 WNW 13 16 1006.2 - 0.0 - - 10 - - - -
20/06:00pm 29.6 WNW 12 15 1006.1 - 0.0 - - 10 - - - -
20/05:30pm 30.5 WNW 13 17 1006.2 - 0.0 - - 10 - - - -
20/05:00pm 30.6 WNW 14 18 1006.1 - 0.0 - - 10 - - - -
20/04:30pm 31.0 WNW 14 17 1006.1 - 0.0 - - 10 - - - -
20/04:00pm 32.4 WNW 14 18 1005.9 - 0.0 - - 10 - - - -
20/03:30pm 32.7 NW 13 17 1006.2 - 0.0 - - 10 - - - -
20/03:00pm 32.7 WNW 15 18 1006.4 - 0.0 - - 10 - - - -
20/02:30pm 33.1 NW 13 17 1006.6 - 0.0 - - 10 - - - -
20/02:00pm 32.9 NNW 12 17 1007.1 - 0.0 - - 10 - - - -
20/01:30pm 33.7 NW 12 16 1007.4 - 0.0 - - 10 - - - -
20/01:00pm 32.0 WNW 13 16 1007.8 - 0.0 - - 10 - - - -
20/12:30pm 31.7 NW 13 17 1008.2 - 0.0 - - 10 - - - -
20/12:00pm 31.7 WNW 13 17 1008.5 - 0.0 - - 10 - - - -
20/11:30am 32.0 WNW 14 17 1008.9 - 0.0 - - 10 - - - -
20/11:00am 31.9 WNW 13 16 1009.4 - 0.0 - - 10 - - - -
20/10:30am 33.3 WNW 12 16 1009.8 - 0.0 - - 10 - - - -
20/10:00am 32.0 WNW 8 12 1010.2 - 0.0 - - 10 - - - -
20/09:30am 31.3 WNW 9 12 1010.1 - 0.0 - - 10 - - - -
20/09:00am 31.1 WNW 8 11 1010.3 - 0.0 - - 10 - - - -
20/08:30am 30.2 W 7 10 1010.4 - 0.0 - - 10 - - - -
20/08:00am 29.2 W 10 12 1010.3 - 0.0 - - 10 - - - -
20/07:30am 28.8 W 10 12 1010.2 - 0.0 - - 10 - - - -
20/07:00am 28.1 W 7 9 1010.0 - 0.0 - - 10 - - - -
20/06:30am 26.7 WSW 3 4 1009.8 - 0.0 - - 10 - - - -
20/06:00am 25.0 SW 3 4 1009.4 - 0.0 - - 10 - - - -
20/05:30am 24.2 SSW 4 5 1009.2 - 0.0 - - 10 - - - -
20/05:00am 25.1 WSW 4 5 1009.0 - 0.0 - - 10 - - - -
20/04:30am 25.5 W 3 5 1009.0 - 0.0 - - 10 - - - -
20/04:00am 24.9 W 4 5 1008.8 - 0.0 - - 10 - - - -
20/03:30am 24.7 SW 4 5 1008.9 - 0.0 - - 10 - - - -
20/03:00am 25.4 SW 5 7 1008.9 - 0.0 - - 10 - - - -
20/02:30am 25.7 WSW 7 8 1008.9 - 0.0 - - 10 - - - -
20/02:00am 25.5 SW 8 9 1008.9 - 0.0 - - 10 - - - -
20/01:30am 25.7 SW 8 9 1009.3 - 0.0 - - 10 - - - -
20/01:00am 25.8 SW 8 10 1009.5 - 0.0 - - 10 - - - -
20/12:30am 26.3 SW 8 11 1010.0 - 0.0 - - 10 - - - -
20/12:00am 26.9 WSW 11 13 1010.2 - 0.0 - - 10 - - - -
 
Date/Time
WST
Temp

°C
Wind Pressure Rain
since 9am
mm
Weather Cloud Vis
km
Sea
Height
m
Swell
Dir
 
Speed
knots
Gust
knots
hPa Trend Height
m
Period
s
Dir
19/11:30pm 26.8 WSW 11 12 1010.6 - 0.0 - - 10 - - - -
19/11:00pm 26.9 W 10 13 1011.0 - 0.0 - - 10 - - - -
19/10:30pm 27.0 W 11 14 1011.3 - 0.0 - - 10 - - - -
19/10:00pm 27.0 W 12 14 1011.3 - 0.0 - - 10 - - - -
19/09:30pm 27.0 W 12 16 1011.1 - 0.0 - - 10 - - - -
19/09:00pm 27.0 W 12 15 1010.9 - 0.0 - - 10 - - - -
19/08:30pm 27.0 WNW 11 14 1010.6 - 0.0 - - 10 - - - -
19/08:00pm 27.2 WNW 12 14 1010.3 - 0.0 - - 10 - - - -
19/07:30pm 27.5 NW 11 13 1010.1 - 0.0 - - 10 - - - -
19/07:00pm 28.1 WNW 13 17 1009.4 - 0.0 - - 10 - - - -
19/06:30pm 28.9 NW 12 15 1009.4 - 0.0 - - 10 - - - -
19/06:00pm 29.8 NNW 11 16 1009.1 - 0.0 - - 10 - - - -
19/05:30pm 30.0 NNW 11 14 1009.1 - 0.0 - - 10 - - - -
19/05:00pm 30.9 NNW 11 15 1008.9 - 0.0 - - 10 - - - -
19/04:30pm 31.6 NNW 11 14 1008.6 - 0.0 - - 10 - - - -
19/04:00pm 32.8 NNW 11 14 1008.4 - 0.0 - - 10 - - - -
19/03:30pm 33.2 NW 12 15 1008.1 - 0.0 - - 10 - - - -
19/03:00pm 33.8 NW 11 14 1008.4 - 0.0 - - 10 - - - -
19/02:30pm 33.1 NW 12 15 1008.4 - 0.0 - - 10 - - - -
19/02:00pm 33.1 NW 11 14 1008.9 - 0.0 - - 10 - - - -
19/01:30pm 32.0 NNW 11 14 1009.0 - 0.0 - - 10 - - - -
19/01:00pm 31.8 NNW 12 16 1009.1 - 0.0 - - 10 - - - -
19/12:30pm 32.1 NNW 11 14 1009.3 - 0.0 - - 10 - - - -
19/12:00pm 33.2 NW 10 13 1009.4 - 0.0 - - 10 - - - -
19/11:30am 31.9 WNW 8 13 1009.6 - 0.0 - - 10 - - - -
19/11:00am 31.9 WNW 9 13 1009.8 - 0.0 - - 10 - - - -
19/10:30am 31.7 WNW 9 14 1010.0 - 0.0 - - 10 - - - -
19/10:00am 30.6 WNW 10 13 1010.1 - 0.0 - - 10 - - - -
19/09:30am 29.5 W 10 13 1010.1 - 0.0 - - 10 - - - -
19/09:00am 29.1 WNW 9 13 1010.5 - 0.0 - - 10 - - - -
19/08:30am 28.8 WNW 11 14 1010.3 - 0.0 - - 10 - - - -
19/08:00am 28.5 WNW 9 11 1010.1 - 0.0 - - 10 - - - -
19/07:30am 28.0 WNW 9 11 1009.8 - 0.0 - - 10 - - - -
19/07:00am 27.1 NW 9 11 1009.4 - 0.0 - - 10 - - - -
19/06:30am 26.9 WNW 9 11 1008.8 - 0.0 - - 10 - - - -
19/06:00am 26.3 WNW 8 11 1008.5 - 0.0 - - 10 - - - -
19/05:30am 26.1 WNW 9 11 1008.2 - 0.0 - - 10 - - - -
19/05:00am 26.2 W 10 12 1008.0 - 0.0 - - 10 - - - -
19/04:30am 26.0 NW 8 11 1008.1 - 0.0 - - 10 - - - -
19/04:00am 26.0 WNW 9 10 1008.0 - 0.0 - - 10 - - - -
19/03:30am 26.1 WNW 9 11 1007.9 - 0.0 - - 10 - - - -
19/03:00am 26.2 WNW 9 11 1007.8 - 0.0 - - 10 - - - -
19/02:30am 26.3 NW 9 11 1007.8 - 0.0 - - 9 - - - -
19/02:00am 26.4 NW 8 11 1007.7 - 0.0 - - 9 - - - -
19/01:30am 26.8 WNW 9 11 1007.6 - 0.0 - - 10 - - - -
19/01:00am 26.9 WNW 8 11 1007.8 - 0.0 - - 10 - - - -
19/12:30am 26.9 WNW 8 10 1008.1 - 0.0 - - 10 - - - -
19/12:00am 27.1 WNW 8 10 1008.4 - 0.0 - - 10 - - - -
 
Date/Time
WST
Temp

°C
Wind Pressure Rain
since 9am
mm
Weather Cloud Vis
km
Sea
Height
m
Swell
Dir
 
Speed
knots
Gust
knots
hPa Trend Height
m
Period
s
Dir
18/11:30pm 27.3 WNW 8 11 1008.4 - 0.0 - - 10 - - - -
18/11:00pm 27.3 WNW 8 10 1008.4 - 0.0 - - 10 - - - -
18/10:30pm 27.4 WNW 10 13 1008.1 - 0.0 - - 10 - - - -
18/10:00pm 27.5 W 10 13 1007.9 - 0.0 - - 10 - - - -

Other Formats:

Comma delimited format used in spreadsheet applications
http://www.bom.gov.au/fwo/IDW60701/IDW60701.95307.axf

JavaScript Object Notation format (JSON) in row-major order
http://www.bom.gov.au/fwo/IDW60701/IDW60701.95307.json